createdAt,value
2024-03-27T00:01:25.994Z,97286.70
2024-03-27T00:05:01.272Z,97293.31
2024-03-27T00:08:21.247Z,97295.56
2024-03-27T00:11:39.337Z,97296.39
2024-03-27T00:15:06.744Z,97286.88
2024-03-27T00:18:30.997Z,97288.13
2024-03-27T00:21:56.741Z,97282.60
2024-03-27T00:25:22.105Z,97279.97
2024-03-27T00:28:46.286Z,97270.17
2024-03-27T00:32:11.279Z,97277.73
2024-03-27T00:35:37.479Z,97274.95
2024-03-27T00:39:10.316Z,97273.95
2024-03-27T00:42:40.020Z,97265.88
2024-03-27T00:46:00.178Z,97271.52
2024-03-27T00:49:17.618Z,97262.18
2024-03-27T00:52:35.520Z,97264.86
2024-03-27T00:56:01.756Z,97259.86
2024-03-27T00:59:19.282Z,97251.64
2024-03-27T01:02:36.904Z,97246.13
2024-03-27T01:05:55.049Z,97244.14
2024-03-27T01:09:12.543Z,97244.44
2024-03-27T01:12:30.228Z,97244.05
2024-03-27T01:15:49.726Z,97235.30
2024-03-27T01:19:04.932Z,97239.86
2024-03-27T01:22:22.256Z,97228.97
2024-03-27T01:25:39.803Z,97223.31
2024-03-27T01:28:57.517Z,97221.71
2024-03-27T01:32:15.824Z,97218.81
2024-03-27T01:35:35.021Z,97216.01
2024-03-27T01:38:53.994Z,97211.06
2024-03-27T01:42:12.124Z,97206.67
2024-03-27T01:45:29.792Z,97189.78
2024-03-27T01:48:47.269Z,97190.84
2024-03-27T01:52:05.251Z,97202.16
2024-03-27T01:55:23.139Z,97180.08
2024-03-27T01:58:40.758Z,97174.58
2024-03-27T02:01:58.713Z,97166.11
2024-03-27T02:05:17.742Z,97172.50
2024-03-27T02:08:35.240Z,97163.47
2024-03-27T02:11:53.032Z,97150.45
2024-03-27T02:15:16.000Z,97145.09
2024-03-27T02:18:33.551Z,97143.34
2024-03-27T02:21:51.412Z,97134.05
2024-03-27T02:25:14.725Z,97124.69
2024-03-27T02:28:33.132Z,97140.41
2024-03-27T02:31:53.627Z,97140.41
2024-03-27T02:35:12.841Z,97126.64
2024-03-27T02:38:36.048Z,97122.58
2024-03-27T02:41:53.670Z,97117.58
2024-03-27T02:45:12.160Z,97111.99
2024-03-27T02:48:29.632Z,97106.49
2024-03-27T02:51:47.207Z,97096.95
2024-03-27T02:55:04.674Z,97089.44
2024-03-27T02:58:22.191Z,97104.33
2024-03-27T03:01:39.767Z,97096.92
2024-03-27T03:04:57.064Z,97094.66
2024-03-27T03:08:15.185Z,97091.72
2024-03-27T03:11:32.660Z,97080.02
2024-03-27T03:14:50.094Z,97063.14
2024-03-27T03:18:07.311Z,97072.30
2024-03-27T03:21:25.415Z,97066.77
2024-03-27T03:24:42.943Z,97049.93
2024-03-27T03:28:00.507Z,97042.67
2024-03-27T03:31:19.298Z,97037.98
2024-03-27T03:34:36.982Z,97034.52
2024-03-27T03:37:54.573Z,97020.24
2024-03-27T03:41:16.046Z,97028.90
2024-03-27T03:44:33.652Z,97036.91
2024-03-27T03:47:51.075Z,97034.91
2024-03-27T03:51:08.619Z,97022.77
2024-03-27T03:54:25.945Z,97008.23
2024-03-27T03:57:43.316Z,97001.97
2024-03-27T04:01:03.353Z,96990.89
2024-03-27T04:04:20.692Z,96996.15
2024-03-27T04:07:37.936Z,96999.84
2024-03-27T04:10:55.661Z,97004.06
2024-03-27T04:14:13.144Z,96997.64
2024-03-27T04:17:30.534Z,97003.98
2024-03-27T04:20:50.535Z,97001.67
2024-03-27T04:24:08.078Z,96987.34
2024-03-27T04:27:26.038Z,97005.61
2024-03-27T04:30:45.104Z,96999.61
2024-03-27T04:34:02.518Z,97000.36
2024-03-27T04:37:20.191Z,96983.42
2024-03-27T04:40:38.472Z,96992.16
2024-03-27T04:43:55.824Z,96989.87
2024-03-27T04:47:13.435Z,96985.36
2024-03-27T04:50:31.192Z,96989.48
2024-03-27T04:53:48.576Z,96984.04
2024-03-27T04:57:06.041Z,96971.36
2024-03-27T05:00:25.504Z,96968.09
2024-03-27T05:03:43.276Z,96965.16
2024-03-27T05:07:03.348Z,96969.61
2024-03-27T05:10:21.370Z,96970.07
2024-03-27T05:13:39.031Z,96968.42
2024-03-27T05:16:57.123Z,96967.67
2024-03-27T05:20:18.958Z,96963.80
2024-03-27T05:23:36.208Z,96967.16
2024-03-27T05:26:55.389Z,96964.97
2024-03-27T05:30:14.925Z,96967.52
2024-03-27T05:33:32.295Z,96973.45
2024-03-27T05:36:49.788Z,96961.21
2024-03-27T05:40:07.155Z,96961.45
2024-03-27T05:43:24.896Z,96965.70
2024-03-27T05:46:43.260Z,96970.63
2024-03-27T05:50:01.243Z,96973.91
2024-03-27T05:53:19.539Z,96980.27
2024-03-27T05:56:37.256Z,96981.36
2024-03-27T05:59:54.795Z,96981.84
2024-03-27T06:03:12.697Z,96991.38
2024-03-27T06:06:30.320Z,96990.38
2024-03-27T06:09:47.561Z,96988.06
2024-03-27T06:13:06.142Z,96987.92
2024-03-27T06:16:26.587Z,96982.66
2024-03-27T06:19:44.118Z,96988.20
2024-03-27T06:23:01.789Z,96986.59
2024-03-27T06:26:19.787Z,96975.03
2024-03-27T06:29:37.407Z,96979.09
2024-03-27T06:32:55.102Z,96983.31
2024-03-27T06:36:13.326Z,96983.08
2024-03-27T06:39:31.307Z,96975.53
2024-03-27T06:42:49.715Z,96996.65
2024-03-27T06:46:07.220Z,96975.90
2024-03-27T06:49:26.491Z,96982.31
2024-03-27T06:52:42.047Z,96984.60
2024-03-27T06:55:59.091Z,96985.80
2024-03-27T06:59:16.943Z,96981.88
2024-03-27T07:02:34.344Z,96994.13
2024-03-27T07:05:51.741Z,96986.42
2024-03-27T07:09:10.692Z,96988.57
2024-03-27T07:12:31.120Z,96996.33
2024-03-27T07:15:52.018Z,96995.15
2024-03-27T07:19:10.781Z,96994.77
2024-03-27T07:22:28.479Z,96991.91
2024-03-27T07:25:47.595Z,96985.11
2024-03-27T07:29:05.428Z,97001.13
2024-03-27T07:32:23.159Z,97000.88
2024-03-27T07:35:40.654Z,96996.03
2024-03-27T07:38:58.827Z,97003.67
2024-03-27T07:42:16.543Z,96997.83
2024-03-27T07:45:34.820Z,97000.97
2024-03-27T07:48:54.205Z,97011.81
2024-03-27T07:52:12.406Z,97013.42
2024-03-27T07:55:30.889Z,97009.64
2024-03-27T07:58:49.447Z,97003.86
2024-03-27T08:02:06.894Z,97008.70
2024-03-27T08:05:25.007Z,97018.09
2024-03-27T08:08:43.286Z,97007.61
2024-03-27T08:12:04.178Z,96991.63
2024-03-27T08:15:22.091Z,97005.80
2024-03-27T08:18:52.996Z,97014.47
2024-03-27T08:22:10.848Z,97001.95
2024-03-27T08:25:28.918Z,97012.64
2024-03-27T08:28:46.752Z,97003.89
2024-03-27T08:32:07.168Z,97009.05
2024-03-27T08:35:24.070Z,97007.55
2024-03-27T08:38:41.926Z,97009.10
2024-03-27T08:42:00.370Z,97010.86
2024-03-27T08:45:19.734Z,97000.05
2024-03-27T08:48:37.674Z,96992.94
2024-03-27T08:51:55.163Z,96993.69
2024-03-27T08:55:14.648Z,96988.50
2024-03-27T08:58:32.253Z,96990.92
2024-03-27T09:01:52.346Z,96979.64
2024-03-27T09:05:10.050Z,96992.69
2024-03-27T09:08:27.562Z,96987.91
2024-03-27T09:11:49.538Z,96985.30
2024-03-27T09:20:20.391Z,96996.95
2024-03-27T09:23:51.504Z,96988.56
2024-03-27T09:27:22.468Z,96987.77
2024-03-27T09:30:56.167Z,96996.48
2024-03-27T09:34:30.694Z,96981.66
2024-03-27T09:37:48.073Z,96975.91
2024-03-27T09:41:08.182Z,96975.45
2024-03-27T09:44:27.900Z,96972.49
2024-03-27T09:47:50.142Z,96973.16
2024-03-27T09:51:11.086Z,96976.83
2024-03-27T09:54:30.495Z,96974.74
2024-03-27T09:58:09.974Z,96959.02
2024-03-27T10:01:49.604Z,96978.47
2024-03-27T10:05:20.475Z,96964.09
2024-03-27T10:08:45.613Z,96952.59
2024-03-27T10:12:05.804Z,96965.92
2024-03-27T10:15:23.842Z,96966.27
2024-03-27T10:18:46.684Z,96950.63
2024-03-27T10:22:05.249Z,96945.50
2024-03-27T10:25:27.816Z,96959.27
2024-03-27T10:28:56.720Z,96955.28
2024-03-27T10:32:32.898Z,96947.72
2024-03-27T10:35:59.315Z,96949.25
2024-03-27T10:39:22.934Z,96940.02
2024-03-27T10:42:44.020Z,96939.64
2024-03-27T10:46:04.097Z,96934.47
2024-03-27T10:49:23.076Z,96938.47
2024-03-27T10:52:41.364Z,96922.70
2024-03-27T10:56:00.196Z,96925.91
2024-03-27T10:59:26.827Z,96927.59
2024-03-27T11:03:16.366Z,96923.56
2024-03-27T11:06:38.606Z,96932.06
2024-03-27T11:10:02.429Z,96921.55
2024-03-27T11:13:21.460Z,96914.78
2024-03-27T11:16:53.887Z,96918.12
2024-03-27T11:20:22.739Z,96918.91
2024-03-27T11:23:51.292Z,96903.42
2024-03-27T11:27:14.013Z,96908.59
2024-03-27T11:30:34.210Z,96916.98
2024-03-27T11:33:54.951Z,96904.06
2024-03-27T11:37:14.177Z,96896.39
2024-03-27T11:40:31.663Z,96903.32
2024-03-27T11:43:48.940Z,96894.56
2024-03-27T11:47:06.455Z,96898.88
2024-03-27T11:50:24.640Z,96901.20
2024-03-27T11:53:55.772Z,96909.94
2024-03-27T11:57:16.719Z,96901.75
2024-03-27T12:00:35.337Z,96899.66
2024-03-27T12:03:54.564Z,96886.77
2024-03-27T12:07:13.490Z,96886.23
2024-03-27T12:10:28.703Z,96883.36
2024-03-27T12:13:48.939Z,96873.54
2024-03-27T12:17:08.060Z,96876.48
2024-03-27T12:20:27.492Z,96871.94
2024-03-27T12:23:49.784Z,96876.41
2024-03-27T12:27:09.509Z,96876.23
2024-03-27T12:30:31.460Z,96870.86
2024-03-27T12:33:48.883Z,96868.43
2024-03-27T12:37:08.006Z,96871.95
2024-03-27T12:40:25.902Z,96860.48
2024-03-27T12:43:44.553Z,96862.89
2024-03-27T12:47:01.766Z,96860.84
2024-03-27T12:50:19.788Z,96856.84
2024-03-27T12:53:39.673Z,96862.94
2024-03-27T12:57:04.033Z,96864.02
2024-03-27T13:00:27.415Z,96864.02
2024-03-27T13:03:46.187Z,96860.25
2024-03-27T13:07:11.276Z,96850.05
2024-03-27T13:10:38.186Z,96851.22
2024-03-27T13:13:56.618Z,96852.59
2024-03-27T13:17:17.551Z,96851.31
2024-03-27T13:20:37.621Z,96850.58
2024-03-27T13:23:58.287Z,96840.17
2024-03-27T13:27:16.495Z,96828.45
2024-03-27T13:30:35.188Z,96814.99
2024-03-27T13:33:54.463Z,96831.34
2024-03-27T13:37:12.837Z,96828.13
2024-03-27T13:40:30.778Z,96852.63
2024-03-27T13:43:49.491Z,96814.33
2024-03-27T13:47:06.806Z,96814.37
2024-03-27T13:50:24.307Z,96830.53
2024-03-27T13:53:44.320Z,96812.02
2024-03-27T13:57:02.196Z,96810.41
2024-03-27T14:00:25.808Z,96803.18
2024-03-27T14:03:45.355Z,96817.69
2024-03-27T14:07:02.650Z,96801.61
2024-03-27T14:10:21.307Z,96803.50
2024-03-27T14:13:39.234Z,96797.88
2024-03-27T14:16:58.302Z,96801.64
2024-03-27T14:20:22.048Z,96802.73
2024-03-27T14:23:41.524Z,96803.33
2024-03-27T14:27:02.475Z,96819.98
2024-03-27T14:30:26.025Z,96825.11
2024-03-27T14:33:54.714Z,96808.30
2024-03-27T14:37:15.690Z,96817.95
2024-03-27T14:41:09.176Z,96817.40
2024-03-27T14:44:35.674Z,96824.39
2024-03-27T14:47:53.228Z,96812.09
2024-03-27T14:51:13.287Z,96810.47
2024-03-27T14:54:30.403Z,96810.47
2024-03-27T14:57:49.633Z,96817.17
2024-03-27T15:01:08.414Z,96801.66
2024-03-27T15:04:28.483Z,96809.41
2024-03-27T15:07:46.458Z,96802.45
2024-03-27T15:11:06.512Z,96808.87
2024-03-27T15:14:24.876Z,96808.59
2024-03-27T15:17:39.908Z,96800.02
2024-03-27T15:20:57.043Z,96790.16
2024-03-27T15:24:15.379Z,96788.02
2024-03-27T15:27:37.519Z,96789.88
2024-03-27T15:30:55.640Z,96788.81
2024-03-27T15:34:14.794Z,96797.11
2024-03-27T15:37:31.570Z,96787.75
2024-03-27T15:40:50.459Z,96798.17
2024-03-27T15:44:09.173Z,96780.25
2024-03-27T15:47:32.956Z,96793.61
2024-03-27T15:50:51.355Z,96791.73
2024-03-27T15:54:21.517Z,96785.31
2024-03-27T15:57:39.644Z,96793.61
2024-03-27T16:00:58.622Z,96800.28
2024-03-27T16:04:23.074Z,96788.50
2024-03-27T16:07:33.388Z,96790.92
2024-03-27T16:10:58.452Z,96781.50
2024-03-27T16:14:15.618Z,96797.80
2024-03-27T16:17:33.864Z,96792.16
2024-03-27T16:20:51.421Z,96795.86
2024-03-27T16:24:08.728Z,96812.95
2024-03-27T16:27:26.059Z,96800.88
2024-03-27T16:30:45.408Z,96798.61
2024-03-27T16:34:01.583Z,96793.53
2024-03-27T16:37:20.405Z,96784.72
2024-03-27T16:40:37.635Z,96768.84
2024-03-27T16:43:54.982Z,96790.07
2024-03-27T16:47:12.877Z,96802.55
2024-03-27T16:50:30.074Z,96781.35
2024-03-27T16:53:47.807Z,96779.41
2024-03-27T16:57:07.419Z,96770.35
2024-03-27T17:00:32.781Z,96772.91
2024-03-27T17:03:53.213Z,96773.92
2024-03-27T17:07:10.773Z,96782.17
2024-03-27T17:10:28.922Z,96778.91
2024-03-27T17:13:47.229Z,96766.78
2024-03-27T17:17:05.253Z,96767.91
2024-03-27T17:20:24.016Z,96792.05
2024-03-27T17:23:42.131Z,96794.80
2024-03-27T17:27:02.306Z,96804.06
2024-03-27T17:30:22.169Z,96804.58
2024-03-27T17:33:40.171Z,96804.88
2024-03-27T17:36:57.622Z,96798.45
2024-03-27T17:40:18.635Z,96792.26
2024-03-27T17:43:41.396Z,96795.34
2024-03-27T17:46:59.959Z,96798.29
2024-03-27T17:50:19.667Z,96801.91
2024-03-27T17:53:38.695Z,96811.38
2024-03-27T17:56:58.459Z,96816.70
2024-03-27T18:00:25.465Z,96805.00
2024-03-27T18:03:43.897Z,96812.42
2024-03-27T18:07:02.817Z,96802.44
2024-03-27T18:10:20.207Z,96808.33
2024-03-27T18:13:43.657Z,96816.38
2024-03-27T18:17:01.030Z,96813.41
2024-03-27T18:20:20.760Z,96810.30
2024-03-27T18:23:38.565Z,96801.81
2024-03-27T18:27:01.364Z,96802.44
2024-03-27T18:30:21.030Z,96797.12
2024-03-27T18:33:39.614Z,96790.79
2024-03-27T18:36:57.063Z,96782.74
2024-03-27T18:40:16.925Z,96786.00
2024-03-27T18:43:34.454Z,96778.09
2024-03-27T18:46:52.345Z,96781.06
2024-03-27T18:50:12.199Z,96776.85
2024-03-27T18:53:31.435Z,96780.59
2024-03-27T18:56:48.992Z,96784.61
2024-03-27T19:00:10.470Z,96781.95
2024-03-27T19:03:28.436Z,96780.59
2024-03-27T19:06:44.618Z,96776.91
2024-03-27T19:10:02.547Z,96776.09
2024-03-27T19:13:23.696Z,96777.13
2024-03-27T19:16:41.050Z,96774.18
2024-03-27T19:20:00.407Z,96773.11
2024-03-27T19:23:18.057Z,96774.65
2024-03-27T19:26:36.877Z,96766.86
2024-03-27T19:29:54.546Z,96768.38
2024-03-27T19:33:12.346Z,96768.08
2024-03-27T19:36:30.491Z,96754.36
2024-03-27T19:39:49.855Z,96749.55
2024-03-27T19:43:07.227Z,96739.89
2024-03-27T19:46:27.029Z,96733.67
2024-03-27T19:49:44.348Z,96740.78
2024-03-27T19:53:03.795Z,96733.60
2024-03-27T19:56:21.514Z,96730.95
2024-03-27T19:59:38.989Z,96735.47
2024-03-27T20:02:57.833Z,96729.33
2024-03-27T20:06:15.740Z,96740.38
2024-03-27T20:09:34.654Z,96737.31
2024-03-27T20:12:52.125Z,96732.64
2024-03-27T20:16:13.114Z,96728.01
2024-03-27T20:19:31.742Z,96729.79
2024-03-27T20:22:50.756Z,96722.16
2024-03-27T20:26:10.069Z,96724.56
2024-03-27T20:29:27.681Z,96738.88
2024-03-27T20:32:48.489Z,96745.40
2024-03-27T20:36:06.772Z,96740.00
2024-03-27T20:39:25.840Z,96740.22
2024-03-27T20:42:44.091Z,96743.70
2024-03-27T20:46:02.145Z,96741.83
2024-03-27T20:49:21.800Z,96745.20
2024-03-27T20:52:40.167Z,96734.58
2024-03-27T20:56:01.974Z,96746.48
2024-03-27T20:59:25.751Z,96735.56
2024-03-27T21:02:43.504Z,96733.95
2024-03-27T21:06:01.775Z,96732.70
2024-03-27T21:09:19.127Z,96725.23
2024-03-27T21:12:38.206Z,96720.95
2024-03-27T21:15:55.638Z,96709.67
2024-03-27T21:19:15.073Z,96706.44
2024-03-27T21:22:32.797Z,96701.29
2024-03-27T21:25:50.912Z,96703.36
2024-03-27T21:29:09.185Z,96689.67
2024-03-27T21:32:27.215Z,96691.05
2024-03-27T21:35:45.415Z,96698.21
2024-03-27T21:39:06.510Z,96691.11
2024-03-27T21:42:25.424Z,96689.83
2024-03-27T21:45:44.210Z,96679.21
2024-03-27T21:49:01.558Z,96688.45
2024-03-27T21:52:19.413Z,96691.70
2024-03-27T21:55:36.663Z,96686.89
2024-03-27T21:58:55.344Z,96675.55
2024-03-27T22:02:12.985Z,96675.89
2024-03-27T22:05:30.676Z,96670.92
2024-03-27T22:08:48.216Z,96663.11
2024-03-27T22:12:45.516Z,96658.36
2024-03-27T22:16:02.766Z,96651.34
2024-03-27T22:19:20.122Z,96643.39
2024-03-27T22:22:37.822Z,96644.45
2024-03-27T22:25:58.150Z,96640.22
2024-03-27T22:32:56.089Z,96640.89
2024-03-27T22:36:19.895Z,96625.48
2024-03-27T22:39:39.707Z,96632.39
2024-03-27T22:42:58.654Z,96636.52
2024-03-27T22:46:21.080Z,96631.48
2024-03-27T22:49:39.269Z,96625.59
2024-03-27T22:52:56.615Z,96632.39
2024-03-27T22:56:16.596Z,96627.77
2024-03-27T22:59:35.264Z,96613.50
2024-03-27T23:02:53.106Z,96616.28
2024-03-27T23:06:11.116Z,96612.58
2024-03-27T23:09:28.651Z,96610.39
2024-03-27T23:12:46.337Z,96613.86
2024-03-27T23:16:04.090Z,96599.42
2024-03-27T23:19:21.317Z,96589.64
2024-03-27T23:22:38.611Z,96593.45
2024-03-27T23:25:56.011Z,96587.21
2024-03-27T23:29:13.471Z,96582.30
2024-03-27T23:32:30.888Z,96582.59
2024-03-27T23:35:48.291Z,96587.11
2024-03-27T23:39:06.277Z,96577.77
2024-03-27T23:42:23.570Z,96564.86
2024-03-27T23:45:40.810Z,96563.47
2024-03-27T23:48:58.059Z,96549.13
2024-03-27T23:52:15.522Z,96544.94
2024-03-27T23:55:32.899Z,96538.52
2024-03-27T23:58:50.147Z,96535.53
